createdAt,value
2018-01-02T00:00:42.170Z,0
2018-01-02T00:01:43.580Z,0
2018-01-02T00:02:44.989Z,0
2018-01-02T00:03:46.394Z,0
2018-01-02T00:04:47.802Z,0
2018-01-02T00:05:49.220Z,0
2018-01-02T00:06:50.629Z,0
2018-01-02T00:07:52.042Z,0
2018-01-02T00:08:53.449Z,0
2018-01-02T00:09:54.860Z,0
2018-01-02T00:10:56.274Z,0
2018-01-02T00:11:57.687Z,0
2018-01-02T00:12:59.102Z,0
2018-01-02T00:14:00.507Z,0
2018-01-02T00:15:01.915Z,0
2018-01-02T00:16:03.333Z,0
2018-01-02T00:17:04.755Z,0
2018-01-02T00:18:06.177Z,0
2018-01-02T00:19:07.571Z,0
2018-01-02T00:20:08.990Z,0
2018-01-02T00:21:10.409Z,0
2018-01-02T00:22:11.827Z,0
2018-01-02T00:23:13.244Z,0
2018-01-02T00:24:14.651Z,0
2018-01-02T00:25:16.070Z,0
2018-01-02T00:26:17.480Z,0
2018-01-02T00:27:18.885Z,0
2018-01-02T00:28:20.298Z,0
2018-01-02T00:29:21.703Z,0
2018-01-02T00:30:23.117Z,0
2018-01-02T00:31:24.553Z,0
2018-01-02T00:32:25.955Z,0
2018-01-02T00:33:27.376Z,0
2018-01-02T00:34:28.797Z,0
2018-01-02T00:35:30.202Z,0
2018-01-02T00:36:31.617Z,0
2018-01-02T00:37:33.034Z,0
2018-01-02T00:38:34.444Z,0
2018-01-02T00:39:35.856Z,0
2018-01-02T00:40:37.272Z,0
2018-01-02T00:41:38.693Z,0
2018-01-02T00:42:40.096Z,0
2018-01-02T00:43:41.507Z,0
2018-01-02T00:44:42.913Z,0
2018-01-02T00:45:44.434Z,0
2018-01-02T00:46:45.845Z,0
2018-01-02T00:47:47.261Z,0
2018-01-02T00:48:48.669Z,0
2018-01-02T00:49:50.081Z,0
2018-01-02T00:50:51.503Z,0
2018-01-02T00:51:52.919Z,0
2018-01-02T00:52:54.344Z,0
2018-01-02T00:53:55.752Z,0
2018-01-02T00:54:57.168Z,0
2018-01-02T00:55:58.578Z,0
2018-01-02T00:56:59.998Z,0
2018-01-02T00:58:01.416Z,0
2018-01-02T00:59:02.833Z,0
2018-01-02T01:00:04.245Z,0
2018-01-02T01:01:05.647Z,0
2018-01-02T01:02:07.054Z,0
2018-01-02T01:03:08.466Z,0
2018-01-02T01:04:09.883Z,0
2018-01-02T01:05:11.302Z,0
2018-01-02T01:06:12.712Z,0
2018-01-02T01:07:14.126Z,0
2018-01-02T01:08:15.540Z,0
2018-01-02T01:09:16.946Z,0
2018-01-02T01:10:18.363Z,0
2018-01-02T01:11:19.787Z,0
2018-01-02T01:12:21.201Z,0
2018-01-02T01:13:22.614Z,0
2018-01-02T01:14:24.032Z,0
2018-01-02T01:15:25.438Z,0
2018-01-02T01:16:26.867Z,0
2018-01-02T01:17:28.283Z,0
2018-01-02T01:18:29.693Z,0
2018-01-02T01:19:31.109Z,0
2018-01-02T01:20:32.520Z,0
2018-01-02T01:21:33.935Z,0
2018-01-02T01:22:35.343Z,0
2018-01-02T01:23:36.774Z,0
2018-01-02T01:24:38.185Z,0
2018-01-02T01:25:39.585Z,0
2018-01-02T01:26:40.996Z,0
2018-01-02T01:27:42.406Z,0
2018-01-02T01:28:43.826Z,0
2018-01-02T01:29:45.235Z,0
2018-01-02T01:30:46.638Z,0
2018-01-02T01:31:48.042Z,0
2018-01-02T01:32:49.462Z,0
2018-01-02T01:33:50.873Z,0
2018-01-02T01:34:52.273Z,0
2018-01-02T01:35:53.683Z,0
2018-01-02T01:36:55.091Z,0
2018-01-02T01:37:56.519Z,0
2018-01-02T01:38:57.924Z,0
2018-01-02T01:39:59.334Z,0
2018-01-02T01:41:00.758Z,0
2018-01-02T01:42:02.166Z,0
2018-01-02T01:43:03.567Z,0
2018-01-02T01:44:04.970Z,0
2018-01-02T01:45:06.382Z,0
2018-01-02T01:46:07.800Z,0
2018-01-02T01:47:09.216Z,0
2018-01-02T01:48:10.633Z,0
2018-01-02T01:49:12.037Z,0
2018-01-02T01:50:13.455Z,0
2018-01-02T01:51:14.868Z,0
2018-01-02T01:52:16.277Z,0
2018-01-02T01:53:17.679Z,0
2018-01-02T01:54:19.082Z,0
2018-01-02T01:55:20.497Z,0
2018-01-02T01:56:21.911Z,0
2018-01-02T01:57:23.325Z,0
2018-01-02T01:58:24.736Z,0
2018-01-02T01:59:26.160Z,0
2018-01-02T02:00:27.568Z,0
2018-01-02T02:01:28.983Z,0
2018-01-02T02:02:30.389Z,0
2018-01-02T02:03:31.796Z,0
2018-01-02T02:04:33.206Z,0
2018-01-02T02:05:34.626Z,0
2018-01-02T02:06:36.036Z,0
2018-01-02T02:07:37.453Z,0
2018-01-02T02:08:38.872Z,0
2018-01-02T02:09:40.276Z,0
2018-01-02T02:10:41.686Z,0
2018-01-02T02:11:43.095Z,0
2018-01-02T02:12:44.514Z,0
2018-01-02T02:13:45.926Z,0
2018-01-02T02:14:47.338Z,0
2018-01-02T02:15:48.750Z,0
2018-01-02T02:16:50.171Z,0
2018-01-02T02:17:51.585Z,0
2018-01-02T02:18:53.011Z,0
2018-01-02T02:19:54.409Z,0
2018-01-02T02:20:55.825Z,0
2018-01-02T02:21:57.224Z,0
2018-01-02T02:22:58.631Z,0
2018-01-02T02:24:00.042Z,0
2018-01-02T02:25:01.455Z,0
2018-01-02T02:26:02.871Z,0
2018-01-02T02:27:04.287Z,0
2018-01-02T02:28:05.694Z,0
2018-01-02T02:29:07.105Z,0
2018-01-02T02:30:08.516Z,0
2018-01-02T02:31:09.931Z,0
2018-01-02T02:32:11.344Z,0
2018-01-02T02:33:12.755Z,0
2018-01-02T02:34:14.167Z,0
2018-01-02T02:35:15.573Z,0
2018-01-02T02:36:16.992Z,0
2018-01-02T02:37:18.524Z,0
2018-01-02T02:38:19.936Z,0
2018-01-02T02:39:21.355Z,0
2018-01-02T02:40:22.771Z,0
2018-01-02T02:41:24.186Z,0
2018-01-02T02:42:25.593Z,0
2018-01-02T02:43:26.997Z,0
2018-01-02T02:44:28.408Z,0
2018-01-02T02:45:29.821Z,0
2018-01-02T02:46:31.220Z,0
2018-01-02T02:47:32.634Z,0
2018-01-02T02:48:34.046Z,0
2018-01-02T02:49:35.450Z,0
2018-01-02T02:50:36.857Z,0
2018-01-02T02:51:38.267Z,0
2018-01-02T02:52:39.681Z,0
2018-01-02T02:53:41.084Z,0
2018-01-02T02:54:42.496Z,0
2018-01-02T02:55:43.912Z,0
2018-01-02T02:56:45.323Z,0
2018-01-02T02:57:46.740Z,0
2018-01-02T02:58:48.156Z,0
2018-01-02T02:59:49.565Z,0
2018-01-02T03:00:50.975Z,0
2018-01-02T03:01:52.385Z,0
2018-01-02T03:02:53.793Z,0
2018-01-02T03:03:55.198Z,0
2018-01-02T03:04:56.604Z,0
2018-01-02T03:05:58.023Z,0
2018-01-02T03:06:59.433Z,0
2018-01-02T03:08:00.842Z,0
2018-01-02T03:09:02.259Z,0
2018-01-02T03:10:03.666Z,0
2018-01-02T03:11:05.080Z,0
2018-01-02T03:12:06.483Z,0
2018-01-02T03:13:07.885Z,0
2018-01-02T03:14:09.299Z,0
2018-01-02T03:15:10.715Z,0
2018-01-02T03:16:12.126Z,0
2018-01-02T03:17:13.537Z,0
2018-01-02T03:18:14.948Z,0
2018-01-02T03:19:16.371Z,0
2018-01-02T03:20:17.778Z,0
2018-01-02T03:21:19.185Z,0
2018-01-02T03:22:20.600Z,0
2018-01-02T03:23:22.006Z,0
2018-01-02T03:24:23.415Z,0
2018-01-02T03:25:24.844Z,0
2018-01-02T03:26:26.263Z,0
2018-01-02T03:27:27.679Z,0
2018-01-02T03:28:29.088Z,0
2018-01-02T03:29:30.513Z,0
2018-01-02T03:30:31.925Z,0
2018-01-02T03:31:33.337Z,0
2018-01-02T03:32:34.742Z,0
2018-01-02T03:33:36.235Z,0
2018-01-02T03:34:37.651Z,0
2018-01-02T03:35:39.065Z,0
2018-01-02T03:36:40.478Z,0
2018-01-02T03:37:41.889Z,0
2018-01-02T03:38:43.302Z,0
2018-01-02T03:39:44.707Z,0
2018-01-02T03:40:46.121Z,0
2018-01-02T03:41:47.527Z,0
2018-01-02T03:42:48.931Z,0
2018-01-02T03:43:50.348Z,0
2018-01-02T03:44:51.768Z,0
2018-01-02T03:45:53.250Z,0
2018-01-02T03:46:54.660Z,0
2018-01-02T03:47:56.066Z,0
2018-01-02T03:48:57.484Z,0
2018-01-02T03:49:58.888Z,0
2018-01-02T03:51:00.319Z,0
2018-01-02T03:52:01.728Z,0
2018-01-02T03:53:03.134Z,0
2018-01-02T03:54:04.541Z,0
2018-01-02T03:55:05.966Z,0
2018-01-02T03:56:07.375Z,0
2018-01-02T03:57:08.784Z,0
2018-01-02T03:58:10.196Z,0
2018-01-02T03:59:11.623Z,0
2018-01-02T04:00:13.023Z,0
2018-01-02T04:01:14.435Z,0
2018-01-02T04:02:15.852Z,0
2018-01-02T04:03:17.264Z,0
2018-01-02T04:04:18.685Z,0
2018-01-02T04:05:20.094Z,0
2018-01-02T04:06:21.510Z,0
2018-01-02T04:07:23.866Z,0
2018-01-02T04:08:25.281Z,0
2018-01-02T04:09:26.693Z,0
2018-01-02T04:10:28.102Z,0
2018-01-02T04:11:29.512Z,0
2018-01-02T04:12:30.919Z,0
2018-01-02T04:13:32.324Z,0
2018-01-02T04:14:33.738Z,0
2018-01-02T04:15:35.152Z,0
2018-01-02T04:16:36.557Z,0
2018-01-02T04:17:37.962Z,0
2018-01-02T04:18:39.368Z,0
2018-01-02T04:19:40.777Z,0
2018-01-02T04:20:42.208Z,0
2018-01-02T04:21:43.618Z,0
2018-01-02T04:22:45.025Z,0
2018-01-02T04:23:46.526Z,0
2018-01-02T04:24:47.942Z,0
2018-01-02T04:25:49.355Z,0
2018-01-02T04:26:50.760Z,0
2018-01-02T04:27:52.174Z,0
2018-01-02T04:28:53.580Z,0
2018-01-02T04:29:54.988Z,0
2018-01-02T04:30:56.409Z,0
2018-01-02T04:31:57.814Z,0
2018-01-02T04:32:59.223Z,0
2018-01-02T04:34:00.638Z,0
2018-01-02T04:35:02.040Z,0
2018-01-02T04:36:03.457Z,0
2018-01-02T04:37:04.859Z,0
2018-01-02T04:38:06.277Z,0
2018-01-02T04:39:07.676Z,0
2018-01-02T04:40:09.092Z,0
2018-01-02T04:41:10.498Z,0
2018-01-02T04:42:11.908Z,0
2018-01-02T04:43:13.317Z,0
2018-01-02T04:44:14.723Z,0
2018-01-02T04:45:16.150Z,0
2018-01-02T04:46:17.549Z,0
2018-01-02T04:47:18.969Z,0
2018-01-02T04:48:20.420Z,0
2018-01-02T04:49:21.828Z,0
2018-01-02T04:50:23.238Z,0
2018-01-02T04:51:24.649Z,0
2018-01-02T04:52:26.057Z,0
2018-01-02T04:53:27.473Z,0
2018-01-02T04:54:28.880Z,0
2018-01-02T04:55:30.288Z,0
2018-01-02T04:56:31.712Z,0
2018-01-02T04:57:33.122Z,0
2018-01-02T04:58:34.520Z,0
2018-01-02T04:59:35.932Z,0
2018-01-02T05:00:37.342Z,0
2018-01-02T05:01:38.756Z,0
2018-01-02T05:02:40.177Z,0
2018-01-02T05:03:41.584Z,0
2018-01-02T05:04:43.005Z,0
2018-01-02T05:05:44.424Z,0
2018-01-02T05:06:45.908Z,0
2018-01-02T05:07:47.330Z,0
2018-01-02T05:08:48.738Z,0
2018-01-02T05:09:50.146Z,0
2018-01-02T05:10:51.557Z,0
2018-01-02T05:11:52.961Z,0
2018-01-02T05:12:54.371Z,0
2018-01-02T05:13:55.775Z,0
2018-01-02T05:14:57.186Z,0
2018-01-02T05:15:58.593Z,0
2018-01-02T05:16:59.994Z,0
2018-01-02T05:18:01.410Z,0
2018-01-02T05:19:02.846Z,0
2018-01-02T05:20:04.254Z,0
2018-01-02T05:21:05.668Z,0
2018-01-02T05:22:07.075Z,0
2018-01-02T05:23:08.506Z,0
2018-01-02T05:24:09.913Z,0
2018-01-02T05:25:11.319Z,0
2018-01-02T05:26:12.727Z,0
2018-01-02T05:27:14.132Z,0
2018-01-02T05:28:15.546Z,0
2018-01-02T05:29:16.968Z,0
2018-01-02T05:30:18.370Z,0
2018-01-02T05:31:19.777Z,0
2018-01-02T05:32:21.191Z,0
2018-01-02T05:33:22.598Z,0
2018-01-02T05:34:24.007Z,0
2018-01-02T05:35:25.424Z,0
2018-01-02T05:36:26.826Z,0
2018-01-02T05:37:28.251Z,0
2018-01-02T05:38:29.663Z,0
2018-01-02T05:39:31.069Z,0
2018-01-02T05:40:32.481Z,0
2018-01-02T05:41:33.898Z,0
2018-01-02T05:42:35.304Z,0
2018-01-02T05:43:36.716Z,0
2018-01-02T05:44:38.124Z,0
2018-01-02T05:45:39.535Z,0
2018-01-02T05:46:40.967Z,0
2018-01-02T05:47:42.384Z,0
2018-01-02T05:48:43.800Z,0
2018-01-02T05:49:45.296Z,0
2018-01-02T05:50:46.705Z,0
2018-01-02T05:51:48.104Z,0
2018-01-02T05:52:49.517Z,0
2018-01-02T05:53:50.923Z,0
2018-01-02T05:54:52.338Z,0
2018-01-02T05:55:53.751Z,0
2018-01-02T05:56:55.190Z,0
2018-01-02T05:57:56.614Z,0
2018-01-02T05:58:58.016Z,0
2018-01-02T05:59:59.432Z,0
2018-01-02T06:01:00.840Z,0
2018-01-02T06:02:02.249Z,0
2018-01-02T06:03:03.667Z,0
2018-01-02T06:04:05.122Z,0
2018-01-02T06:05:06.490Z,0
2018-01-02T06:06:07.900Z,0
2018-01-02T06:07:09.302Z,0
2018-01-02T06:08:10.716Z,0
2018-01-02T06:09:12.135Z,0
2018-01-02T06:10:13.542Z,0
2018-01-02T06:11:14.951Z,0
2018-01-02T06:12:16.359Z,0
2018-01-02T06:13:17.778Z,0
2018-01-02T06:14:19.195Z,0
2018-01-02T06:15:20.624Z,0
2018-01-02T06:16:22.033Z,0
2018-01-02T06:17:24.098Z,0
2018-01-02T06:18:25.513Z,0
2018-01-02T06:19:27.041Z,0
2018-01-02T06:20:28.457Z,0
2018-01-02T06:21:29.876Z,0
2018-01-02T06:22:31.279Z,0
2018-01-02T06:23:32.695Z,0
2018-01-02T06:24:34.118Z,0
2018-01-02T06:25:35.535Z,0
2018-01-02T06:26:37.032Z,0
2018-01-02T06:27:38.450Z,0
2018-01-02T06:28:39.857Z,0
2018-01-02T06:29:41.270Z,0
2018-01-02T06:30:42.680Z,0
2018-01-02T06:31:44.092Z,0
2018-01-02T06:32:45.502Z,0
2018-01-02T06:33:46.911Z,0
2018-01-02T06:34:48.322Z,0
2018-01-02T06:35:49.745Z,0
2018-01-02T06:36:51.148Z,0
2018-01-02T06:37:52.566Z,0
2018-01-02T06:38:53.976Z,0
2018-01-02T06:39:55.381Z,0
2018-01-02T06:40:56.795Z,0
2018-01-02T06:41:58.201Z,0
2018-01-02T06:42:59.619Z,0
2018-01-02T06:44:01.027Z,0
2018-01-02T06:45:02.445Z,0
2018-01-02T06:46:03.858Z,0
2018-01-02T06:47:05.267Z,0
2018-01-02T06:48:06.679Z,0
2018-01-02T06:49:08.086Z,0
2018-01-02T06:50:09.495Z,0
2018-01-02T06:51:10.907Z,0
2018-01-02T06:52:12.318Z,0
2018-01-02T06:53:13.725Z,0
2018-01-02T06:54:15.139Z,0
2018-01-02T06:55:16.547Z,0
2018-01-02T06:56:17.959Z,0
2018-01-02T06:57:19.371Z,0
2018-01-02T06:58:20.778Z,0
2018-01-02T06:59:22.185Z,0
2018-01-02T07:00:23.590Z,0
2018-01-02T07:01:25.001Z,0
2018-01-02T07:02:26.422Z,0
2018-01-02T07:03:27.833Z,0
2018-01-02T07:04:29.247Z,0
2018-01-02T07:05:30.654Z,0
2018-01-02T07:06:32.068Z,0
2018-01-02T07:07:33.481Z,0
2018-01-02T07:08:34.880Z,0
2018-01-02T07:09:36.309Z,0
2018-01-02T07:10:37.706Z,0
2018-01-02T07:11:39.119Z,0
2018-01-02T07:12:40.531Z,0
2018-01-02T07:13:41.932Z,0
2018-01-02T07:14:43.346Z,0
2018-01-02T07:15:44.759Z,0
2018-01-02T07:16:46.172Z,0
2018-01-02T07:17:47.588Z,0
2018-01-02T07:18:49.004Z,0
2018-01-02T07:19:50.418Z,0
2018-01-02T07:20:51.832Z,4
2018-01-02T07:21:53.234Z,4
2018-01-02T07:22:54.641Z,0
2018-01-02T07:23:56.049Z,0
2018-01-02T07:24:57.458Z,4
2018-01-02T07:25:58.866Z,4
2018-01-02T07:27:00.287Z,4
2018-01-02T07:28:01.692Z,4
2018-01-02T07:29:03.103Z,4
2018-01-02T07:30:04.512Z,12
2018-01-02T07:31:05.920Z,12
2018-01-02T07:32:07.326Z,8
2018-01-02T07:33:08.737Z,8
2018-01-02T07:34:10.208Z,12
2018-01-02T07:35:11.569Z,12
2018-01-02T07:36:12.987Z,12
2018-01-02T07:37:14.399Z,12
2018-01-02T07:38:15.817Z,12
2018-01-02T07:39:17.228Z,16
2018-01-02T07:40:18.634Z,12
2018-01-02T07:41:20.040Z,12
2018-01-02T07:42:21.448Z,12
2018-01-02T07:43:22.875Z,12
2018-01-02T07:44:24.297Z,16
2018-01-02T07:45:25.702Z,24
2018-01-02T07:46:27.120Z,28
2018-01-02T07:47:29.398Z,24
2018-01-02T07:48:30.809Z,24
2018-01-02T07:49:32.220Z,24
2018-01-02T07:50:33.622Z,20
2018-01-02T07:51:35.039Z,20
2018-01-02T07:52:36.456Z,20
2018-01-02T07:53:37.865Z,24
2018-01-02T07:54:39.287Z,28
2018-01-02T07:55:40.700Z,40
2018-01-02T07:56:42.108Z,36
2018-01-02T07:57:43.525Z,44
2018-01-02T07:58:44.928Z,48
2018-01-02T07:59:46.444Z,36
2018-01-02T08:00:47.856Z,36
2018-01-02T08:01:49.277Z,28
2018-01-02T08:02:50.679Z,24
2018-01-02T08:03:52.092Z,20
2018-01-02T08:04:53.498Z,20
2018-01-02T08:05:54.921Z,20
2018-01-02T08:06:56.339Z,40
2018-01-02T08:07:57.758Z,40
2018-01-02T08:08:59.174Z,40
2018-01-02T08:10:00.595Z,44
2018-01-02T08:11:02.006Z,48
2018-01-02T08:12:03.421Z,52
2018-01-02T08:13:04.839Z,60
2018-01-02T08:14:06.253Z,60
2018-01-02T08:15:07.682Z,60
2018-01-02T08:16:09.091Z,68
2018-01-02T08:17:10.513Z,64
2018-01-02T08:18:11.929Z,64
2018-01-02T08:19:13.342Z,60
2018-01-02T08:20:14.749Z,68
2018-01-02T08:21:16.171Z,72
2018-01-02T08:22:17.585Z,76
2018-01-02T08:23:18.997Z,68
2018-01-02T08:24:20.421Z,76
2018-01-02T08:25:21.908Z,64
2018-01-02T08:26:23.313Z,56
2018-01-02T08:27:24.731Z,60
2018-01-02T08:28:26.139Z,72
2018-01-02T08:29:27.562Z,84
2018-01-02T08:30:28.970Z,76
2018-01-02T08:31:30.430Z,124
2018-01-02T08:32:31.841Z,60
2018-01-02T08:33:33.247Z,52
2018-01-02T08:34:34.655Z,40
2018-01-02T08:35:36.076Z,44
2018-01-02T08:36:37.487Z,44
2018-01-02T08:37:38.900Z,48
2018-01-02T08:38:40.314Z,48
2018-01-02T08:39:41.724Z,112
2018-01-02T08:40:43.136Z,88
2018-01-02T08:41:44.548Z,88
2018-01-02T08:42:45.966Z,76
2018-01-02T08:43:47.382Z,72
2018-01-02T08:44:48.819Z,80
2018-01-02T08:45:50.225Z,124
2018-01-02T08:46:51.645Z,128
2018-01-02T08:47:53.076Z,176
2018-01-02T08:48:54.485Z,140
2018-01-02T08:49:55.907Z,108
2018-01-02T08:50:57.328Z,84
2018-01-02T08:51:58.746Z,180
2018-01-02T08:53:00.163Z,72
2018-01-02T08:54:01.578Z,176
2018-01-02T08:55:02.988Z,208
2018-01-02T08:56:04.402Z,216
2018-01-02T08:57:05.817Z,100
2018-01-02T08:58:07.230Z,88
2018-01-02T08:59:08.640Z,92
2018-01-02T09:00:10.062Z,148
2018-01-02T09:01:11.478Z,152
2018-01-02T09:02:12.888Z,168
2018-01-02T09:03:14.301Z,176
2018-01-02T09:04:15.720Z,240
2018-01-02T09:05:17.129Z,244
2018-01-02T09:06:18.547Z,252
2018-01-02T09:07:19.956Z,232
2018-01-02T09:08:21.379Z,172
2018-01-02T09:09:22.827Z,112
2018-01-02T09:10:24.276Z,92
2018-01-02T09:11:25.695Z,116
2018-01-02T09:12:27.109Z,112
2018-01-02T09:13:28.529Z,140
2018-01-02T09:14:29.948Z,212
2018-01-02T09:15:31.361Z,220
2018-01-02T09:16:32.772Z,248
2018-01-02T09:17:34.184Z,196
2018-01-02T09:18:35.596Z,232
2018-01-02T09:19:37.007Z,244
2018-01-02T09:20:38.428Z,248
2018-01-02T09:21:39.842Z,288
2018-01-02T09:22:41.266Z,256
2018-01-02T09:23:42.681Z,264
2018-01-02T09:24:44.103Z,344
2018-01-02T09:25:45.501Z,224
2018-01-02T09:26:46.928Z,272
2018-01-02T09:27:48.340Z,280
2018-01-02T09:28:49.763Z,336
2018-01-02T09:29:51.184Z,344
2018-01-02T09:30:52.604Z,388
2018-01-02T09:31:54.010Z,408
2018-01-02T09:32:55.430Z,372
2018-01-02T09:33:56.841Z,500
2018-01-02T09:34:58.248Z,444
2018-01-02T09:35:59.662Z,448
2018-01-02T09:37:01.080Z,508
2018-01-02T09:38:02.503Z,636
2018-01-02T09:39:03.920Z,452
2018-01-02T09:40:05.332Z,516
2018-01-02T09:41:06.749Z,512
2018-01-02T09:42:08.168Z,552
2018-01-02T09:43:09.650Z,452
2018-01-02T09:44:11.062Z,376
2018-01-02T09:45:12.491Z,384
2018-01-02T09:46:13.900Z,396
2018-01-02T09:47:15.306Z,488
2018-01-02T09:48:16.731Z,540
2018-01-02T09:49:18.146Z,608
2018-01-02T09:50:19.679Z,576
2018-01-02T09:51:21.104Z,704
2018-01-02T09:52:22.518Z,792
2018-01-02T09:53:23.929Z,876
2018-01-02T09:54:25.953Z,868
2018-01-02T09:55:27.369Z,928
2018-01-02T09:56:28.784Z,916
2018-01-02T09:57:30.194Z,860
2018-01-02T09:58:31.614Z,836
2018-01-02T09:59:33.027Z,796
2018-01-02T10:00:34.447Z,776
2018-01-02T10:01:35.861Z,748
2018-01-02T10:02:37.268Z,776
2018-01-02T10:03:38.703Z,756
2018-01-02T10:04:40.122Z,684
2018-01-02T10:05:41.546Z,668
2018-01-02T10:06:42.976Z,684
2018-01-02T10:07:44.402Z,680
2018-01-02T10:08:45.822Z,680
2018-01-02T10:09:47.244Z,704
2018-01-02T10:10:48.647Z,692
2018-01-02T10:11:50.063Z,704
2018-01-02T10:12:51.520Z,784
2018-01-02T10:13:52.924Z,740
2018-01-02T10:14:54.341Z,820
2018-01-02T10:15:55.749Z,980
2018-01-02T10:16:57.194Z,872
2018-01-02T10:17:58.612Z,744
2018-01-02T10:19:00.026Z,616
2018-01-02T10:20:01.435Z,628
2018-01-02T10:21:02.858Z,712
2018-01-02T10:22:04.283Z,736
2018-01-02T10:23:05.707Z,668
2018-01-02T10:24:07.132Z,676
2018-01-02T10:25:08.551Z,620
2018-01-02T10:26:09.966Z,608
2018-01-02T10:27:11.383Z,588
2018-01-02T10:28:12.792Z,632
2018-01-02T10:29:14.201Z,604
2018-01-02T10:30:15.616Z,572
2018-01-02T10:31:17.028Z,584
2018-01-02T10:32:18.458Z,576
2018-01-02T10:33:19.872Z,556
2018-01-02T10:34:21.287Z,568
2018-01-02T10:35:22.703Z,580
2018-01-02T10:36:24.117Z,596
2018-01-02T10:37:25.542Z,572
2018-01-02T10:38:26.961Z,620
2018-01-02T10:39:28.385Z,632
2018-01-02T10:40:29.793Z,680
2018-01-02T10:41:31.217Z,712
2018-01-02T10:42:32.631Z,732
2018-01-02T10:43:34.051Z,724
2018-01-02T10:44:35.457Z,752
2018-01-02T10:45:36.882Z,796
2018-01-02T10:46:38.299Z,784
2018-01-02T10:47:39.737Z,832
2018-01-02T10:48:41.157Z,996
2018-01-02T10:49:42.573Z,1020
2018-01-02T10:50:43.986Z,1068
2018-01-02T10:51:45.392Z,1216
2018-01-02T10:52:46.820Z,1224
2018-01-02T10:53:48.258Z,1228
2018-01-02T10:54:49.670Z,1292
2018-01-02T10:55:51.100Z,1568
2018-01-02T10:56:52.511Z,1920
2018-01-02T10:57:53.948Z,1940
2018-01-02T10:58:55.358Z,2160
2018-01-02T10:59:56.784Z,1996
2018-01-02T11:00:58.196Z,2200
2018-01-02T11:01:59.613Z,2448
2018-01-02T11:03:01.131Z,2476
2018-01-02T11:04:02.555Z,2636
2018-01-02T11:05:03.978Z,3008
2018-01-02T11:06:05.400Z,2960
2018-01-02T11:07:06.820Z,3344
2018-01-02T11:08:08.238Z,4084
2018-01-02T11:09:09.662Z,3092
2018-01-02T11:10:11.083Z,2472
2018-01-02T11:11:12.503Z,3048
2018-01-02T11:12:13.924Z,3108
2018-01-02T11:13:15.338Z,3532
2018-01-02T11:14:16.783Z,3112
2018-01-02T11:15:18.201Z,3080
2018-01-02T11:16:19.622Z,3760
2018-01-02T11:17:21.044Z,3992
2018-01-02T11:18:22.528Z,3676
2018-01-02T11:19:23.956Z,3436
2018-01-02T11:20:25.365Z,3308
2018-01-02T11:21:26.782Z,3216
2018-01-02T11:22:28.201Z,3256
2018-01-02T11:23:29.623Z,2664
2018-01-02T11:24:31.034Z,2736
2018-01-02T11:25:32.534Z,2720
2018-01-02T11:26:33.958Z,2420
2018-01-02T11:27:35.372Z,2156
2018-01-02T11:28:36.802Z,1852
2018-01-02T11:29:38.224Z,1828
2018-01-02T11:30:39.645Z,1532
2018-01-02T11:31:41.063Z,2504
2018-01-02T11:32:42.498Z,1920
2018-01-02T11:33:43.913Z,2192
2018-01-02T11:34:45.327Z,1252
2018-01-02T11:35:46.750Z,1288
2018-01-02T11:36:48.177Z,1032
2018-01-02T11:37:49.601Z,932
2018-01-02T11:38:51.007Z,808
2018-01-02T11:39:52.428Z,732
2018-01-02T11:40:53.839Z,608
2018-01-02T11:41:55.270Z,520
2018-01-02T11:42:56.690Z,540
2018-01-02T11:43:58.106Z,612
2018-01-02T11:44:59.524Z,672
2018-01-02T11:46:00.939Z,648
2018-01-02T11:47:02.370Z,600
2018-01-02T11:48:03.798Z,700
2018-01-02T11:49:05.214Z,836
2018-01-02T11:50:06.632Z,1272
2018-01-02T11:51:08.041Z,1784
2018-01-02T11:52:09.457Z,2912
2018-01-02T11:53:10.873Z,4244
2018-01-02T11:54:12.340Z,4848
2018-01-02T11:55:13.728Z,4640
2018-01-02T11:56:15.141Z,4320
2018-01-02T11:57:16.558Z,3860
2018-01-02T11:58:17.988Z,3600
2018-01-02T11:59:19.399Z,3316
2018-01-02T12:00:20.832Z,2192
2018-01-02T12:01:22.261Z,1776
2018-01-02T12:02:23.677Z,1676
2018-01-02T12:03:25.084Z,1540
2018-01-02T12:04:26.512Z,1780
2018-01-02T12:05:27.978Z,1388
2018-01-02T12:06:29.404Z,1268
2018-01-02T12:07:30.834Z,1236
2018-01-02T12:08:32.272Z,1156
2018-01-02T12:09:33.690Z,1004
2018-01-02T12:10:35.102Z,744
2018-01-02T12:11:36.524Z,776
2018-01-02T12:12:37.934Z,924
2018-01-02T12:13:39.345Z,964
2018-01-02T12:14:40.763Z,1064
2018-01-02T12:15:42.176Z,1112
2018-01-02T12:16:43.601Z,1436
2018-01-02T12:17:45.036Z,1260
2018-01-02T12:18:46.591Z,1524
2018-01-02T12:19:48.000Z,1868
2018-01-02T12:20:49.425Z,3140
2018-01-02T12:21:50.845Z,3200
2018-01-02T12:22:52.255Z,3508
2018-01-02T12:23:53.680Z,3020
2018-01-02T12:24:55.099Z,2328
2018-01-02T12:25:56.515Z,1584
2018-01-02T12:26:57.929Z,1784
2018-01-02T12:27:59.354Z,2080
2018-01-02T12:29:00.766Z,1664
2018-01-02T12:30:02.192Z,1184
2018-01-02T12:31:03.619Z,856
2018-01-02T12:32:05.042Z,792
2018-01-02T12:33:06.457Z,832
2018-01-02T12:34:07.880Z,1724
2018-01-02T12:35:09.307Z,2940
2018-01-02T12:36:10.735Z,4868
2018-01-02T12:37:12.161Z,7788
2018-01-02T12:38:13.588Z,15296
2018-01-02T12:39:14.998Z,5772
2018-01-02T12:40:16.414Z,1068
2018-01-02T12:41:17.833Z,3364
2018-01-02T12:42:19.261Z,796
2018-01-02T12:43:20.661Z,16544
2018-01-02T12:44:22.087Z,3440
2018-01-02T12:45:23.546Z,4648
2018-01-02T12:46:24.928Z,16768
2018-01-02T12:47:26.349Z,11324
2018-01-02T12:48:27.768Z,7120
2018-01-02T12:49:29.180Z,7056
2018-01-02T12:50:30.599Z,5324
2018-01-02T12:51:32.128Z,1000
2018-01-02T12:52:33.549Z,4404
2018-01-02T12:53:34.961Z,3732
2018-01-02T12:54:36.383Z,3008
2018-01-02T12:55:37.799Z,3224
2018-01-02T12:56:39.217Z,4840
2018-01-02T12:57:40.634Z,3408
2018-01-02T12:58:42.145Z,3300
2018-01-02T12:59:43.570Z,3364
2018-01-02T13:00:44.986Z,2308
2018-01-02T13:01:46.402Z,2284
2018-01-02T13:02:47.831Z,2364
2018-01-02T13:03:49.252Z,2640
2018-01-02T13:04:50.674Z,2044
2018-01-02T13:05:52.087Z,2784
2018-01-02T13:06:53.525Z,2448
2018-01-02T13:07:54.953Z,1792
2018-01-02T13:08:56.364Z,2076
2018-01-02T13:09:57.781Z,1804
2018-01-02T13:10:59.214Z,2080
2018-01-02T13:12:00.634Z,1936
2018-01-02T13:13:02.052Z,2048
2018-01-02T13:14:03.471Z,1900
2018-01-02T13:15:04.906Z,1568
2018-01-02T13:16:06.320Z,1432
2018-01-02T13:17:07.740Z,1356
2018-01-02T13:18:09.150Z,1212
2018-01-02T13:19:10.568Z,1504
2018-01-02T13:20:11.983Z,1500
2018-01-02T13:21:13.402Z,1568
2018-01-02T13:22:14.850Z,1408
2018-01-02T13:23:16.279Z,1016
2018-01-02T13:24:17.741Z,1484
2018-01-02T13:25:19.152Z,1712
2018-01-02T13:26:20.564Z,1616
2018-01-02T13:27:21.974Z,1660
2018-01-02T13:28:23.386Z,1492
2018-01-02T13:29:24.817Z,1196
2018-01-02T13:30:26.253Z,932
2018-01-02T13:31:27.764Z,1040
2018-01-02T13:32:29.180Z,1016
2018-01-02T13:33:30.612Z,804
2018-01-02T13:34:32.022Z,684
2018-01-02T13:35:33.432Z,620
2018-01-02T13:36:34.850Z,628
2018-01-02T13:37:36.265Z,624
2018-01-02T13:38:37.681Z,592
2018-01-02T13:39:39.095Z,656
2018-01-02T13:40:40.521Z,740
2018-01-02T13:41:41.932Z,788
2018-01-02T13:42:43.344Z,912
2018-01-02T13:43:46.150Z,1008
2018-01-02T13:44:47.560Z,876
2018-01-02T13:45:48.995Z,948
2018-01-02T13:46:50.408Z,1076
2018-01-02T13:47:51.829Z,1060
2018-01-02T13:48:53.251Z,1048
2018-01-02T13:49:54.669Z,1512
2018-01-02T13:50:56.088Z,2308
2018-01-02T13:51:57.520Z,2192
2018-01-02T13:52:58.955Z,1740
2018-01-02T13:54:00.370Z,1428
2018-01-02T13:55:01.780Z,1200
2018-01-02T13:56:03.202Z,916
2018-01-02T13:57:04.616Z,964
2018-01-02T13:58:06.030Z,1056
2018-01-02T13:59:07.446Z,1036
2018-01-02T14:00:08.889Z,1068
2018-01-02T14:01:10.314Z,1416
2018-01-02T14:02:11.731Z,1660
2018-01-02T14:03:13.150Z,1748
2018-01-02T14:04:14.565Z,1752
2018-01-02T14:05:15.990Z,1692
2018-01-02T14:06:17.407Z,1660
2018-01-02T14:07:18.846Z,1616
2018-01-02T14:08:20.271Z,1536
2018-01-02T14:09:21.765Z,1444
2018-01-02T14:10:23.129Z,1320
2018-01-02T14:11:24.549Z,1184
2018-01-02T14:12:25.966Z,1048
2018-01-02T14:13:27.384Z,832
2018-01-02T14:14:28.821Z,668
2018-01-02T14:15:30.234Z,628
2018-01-02T14:16:31.650Z,640
2018-01-02T14:17:33.062Z,584
2018-01-02T14:18:36.538Z,564
2018-01-02T14:19:37.972Z,532
2018-01-02T14:20:39.790Z,500
2018-01-02T14:21:41.939Z,580
2018-01-02T14:22:43.358Z,516
2018-01-02T14:23:44.795Z,528
2018-01-02T14:24:46.224Z,568
2018-01-02T14:25:47.630Z,644
2018-01-02T14:26:49.053Z,656
2018-01-02T14:27:50.465Z,624
2018-01-02T14:28:52.002Z,624
2018-01-02T14:29:53.415Z,660
2018-01-02T14:30:54.826Z,708
2018-01-02T14:31:56.232Z,772
2018-01-02T14:32:57.646Z,856
2018-01-02T14:33:59.264Z,984